sensor_id;sensor_type;location;lat;lon;timestamp;P1;durP1;ratioP1;P2;durP2;ratioP2
49826;SDS011;35715;51.570;6.036;2023-08-17T00:01:06;3.35;;;2.05;;
49826;SDS011;35715;51.570;6.036;2023-08-17T00:03:32;5.10;;;2.13;;
49826;SDS011;35715;51.570;6.036;2023-08-17T00:05:57;4.43;;;1.75;;
49826;SDS011;35715;51.570;6.036;2023-08-17T00:08:23;5.65;;;2.03;;
49826;SDS011;35715;51.570;6.036;2023-08-17T00:10:48;3.83;;;1.80;;
49826;SDS011;35715;51.570;6.036;2023-08-17T00:13:13;12.05;;;2.60;;
49826;SDS011;35715;51.570;6.036;2023-08-17T00:15:39;5.22;;;1.75;;
49826;SDS011;35715;51.570;6.036;2023-08-17T00:18:05;4.43;;;1.60;;
49826;SDS011;35715;51.570;6.036;2023-08-17T00:20:30;3.97;;;1.58;;
49826;SDS011;35715;51.570;6.036;2023-08-17T00:22:55;3.15;;;1.55;;
49826;SDS011;35715;51.570;6.036;2023-08-17T00:25:21;8.30;;;2.28;;
49826;SDS011;35715;51.570;6.036;2023-08-17T00:27:46;5.93;;;3.05;;
49826;SDS011;35715;51.570;6.036;2023-08-17T00:30:12;2.70;;;2.22;;
49826;SDS011;35715;51.570;6.036;2023-08-17T00:32:37;3.40;;;2.33;;
49826;SDS011;35715;51.570;6.036;2023-08-17T00:35:03;4.68;;;2.40;;
49826;SDS011;35715;51.570;6.036;2023-08-17T00:37:28;2.65;;;2.40;;
49826;SDS011;35715;51.570;6.036;2023-08-17T00:39:54;4.07;;;1.70;;
49826;SDS011;35715;51.570;6.036;2023-08-17T00:42:19;9.55;;;3.10;;
49826;SDS011;35715;51.570;6.036;2023-08-17T00:44:45;3.15;;;1.92;;
49826;SDS011;35715;51.570;6.036;2023-08-17T00:47:10;11.25;;;2.85;;
49826;SDS011;35715;51.570;6.036;2023-08-17T00:49:35;3.65;;;2.35;;
49826;SDS011;35715;51.570;6.036;2023-08-17T00:52:01;3.15;;;1.90;;
49826;SDS011;35715;51.570;6.036;2023-08-17T00:54:28;2.17;;;1.45;;
49826;SDS011;35715;51.570;6.036;2023-08-17T00:56:54;1.70;;;1.35;;
49826;SDS011;35715;51.570;6.036;2023-08-17T00:59:21;3.83;;;1.80;;
49826;SDS011;35715;51.570;6.036;2023-08-17T01:01:48;1.67;;;1.35;;
49826;SDS011;35715;51.570;6.036;2023-08-17T01:04:14;2.42;;;1.45;;
49826;SDS011;35715;51.570;6.036;2023-08-17T01:06:39;5.25;;;1.88;;
49826;SDS011;35715;51.570;6.036;2023-08-17T01:09:05;3.20;;;2.03;;
49826;SDS011;35715;51.570;6.036;2023-08-17T01:11:36;3.38;;;1.67;;
49826;SDS011;35715;51.570;6.036;2023-08-17T01:17:00;3.42;;;1.60;;
49826;SDS011;35715;51.570;6.036;2023-08-17T01:19:31;5.50;;;1.90;;
49826;SDS011;35715;51.570;6.036;2023-08-17T01:22:02;2.00;;;1.38;;
49826;SDS011;35715;51.570;6.036;2023-08-17T01:24:30;6.50;;;2.55;;
49826;SDS011;35715;51.570;6.036;2023-08-17T01:26:55;6.65;;;2.92;;
49826;SDS011;35715;51.570;6.036;2023-08-17T01:29:20;5.03;;;1.92;;
49826;SDS011;35715;51.570;6.036;2023-08-17T01:31:50;3.33;;;1.45;;
49826;SDS011;35715;51.570;6.036;2023-08-17T01:34:24;16.67;;;4.95;;
49826;SDS011;35715;51.570;6.036;2023-08-17T01:36:52;4.50;;;1.98;;
49826;SDS011;35715;51.570;6.036;2023-08-17T01:39:22;2.83;;;2.35;;
49826;SDS011;35715;51.570;6.036;2023-08-17T01:41:51;4.13;;;1.98;;
49826;SDS011;35715;51.570;6.036;2023-08-17T01:44:20;4.40;;;2.28;;
49826;SDS011;35715;51.570;6.036;2023-08-17T01:46:46;4.20;;;1.88;;
49826;SDS011;35715;51.570;6.036;2023-08-17T01:49:11;4.53;;;2.25;;
49826;SDS011;35715;51.570;6.036;2023-08-17T01:51:36;3.05;;;2.22;;
49826;SDS011;35715;51.570;6.036;2023-08-17T01:54:02;2.42;;;1.90;;
49826;SDS011;35715;51.570;6.036;2023-08-17T01:56:27;7.97;;;2.33;;
49826;SDS011;35715;51.570;6.036;2023-08-17T01:58:53;4.85;;;2.10;;
49826;SDS011;35715;51.570;6.036;2023-08-17T02:01:18;4.07;;;1.90;;
49826;SDS011;35715;51.570;6.036;2023-08-17T02:03:43;3.40;;;1.63;;
49826;SDS011;35715;51.570;6.036;2023-08-17T02:06:09;2.05;;;1.75;;
49826;SDS011;35715;51.570;6.036;2023-08-17T02:08:35;3.30;;;2.08;;
49826;SDS011;35715;51.570;6.036;2023-08-17T02:11:02;7.97;;;2.42;;
49826;SDS011;35715;51.570;6.036;2023-08-17T02:13:27;3.55;;;1.65;;
49826;SDS011;35715;51.570;6.036;2023-08-17T02:15:53;5.35;;;2.35;;
49826;SDS011;35715;51.570;6.036;2023-08-17T02:18:18;2.13;;;1.50;;
49826;SDS011;35715;51.570;6.036;2023-08-17T02:20:43;3.67;;;2.20;;
49826;SDS011;35715;51.570;6.036;2023-08-17T02:23:09;2.60;;;1.50;;
49826;SDS011;35715;51.570;6.036;2023-08-17T02:25:37;3.53;;;1.88;;
49826;SDS011;35715;51.570;6.036;2023-08-17T02:28:03;10.85;;;2.58;;
49826;SDS011;35715;51.570;6.036;2023-08-17T02:30:29;3.85;;;2.05;;
49826;SDS011;35715;51.570;6.036;2023-08-17T02:32:55;4.15;;;1.85;;
49826;SDS011;35715;51.570;6.036;2023-08-17T02:35:20;4.43;;;1.95;;
49826;SDS011;35715;51.570;6.036;2023-08-17T02:37:45;9.00;;;1.75;;
49826;SDS011;35715;51.570;6.036;2023-08-17T02:40:11;6.00;;;2.33;;
49826;SDS011;35715;51.570;6.036;2023-08-17T02:42:36;2.95;;;1.38;;
49826;SDS011;35715;51.570;6.036;2023-08-17T02:45:02;7.20;;;2.60;;
49826;SDS011;35715;51.570;6.036;2023-08-17T02:47:27;8.43;;;2.15;;
49826;SDS011;35715;51.570;6.036;2023-08-17T02:49:53;4.80;;;2.47;;
49826;SDS011;35715;51.570;6.036;2023-08-17T02:52:18;9.70;;;3.15;;
49826;SDS011;35715;51.570;6.036;2023-08-17T02:54:44;4.90;;;2.53;;
49826;SDS011;35715;51.570;6.036;2023-08-17T02:57:09;3.03;;;2.15;;
49826;SDS011;35715;51.570;6.036;2023-08-17T02:59:34;5.78;;;2.50;;
49826;SDS011;35715;51.570;6.036;2023-08-17T03:02:00;2.80;;;2.05;;
49826;SDS011;35715;51.570;6.036;2023-08-17T03:04:25;3.85;;;1.95;;
49826;SDS011;35715;51.570;6.036;2023-08-17T03:06:51;6.40;;;2.83;;
49826;SDS011;35715;51.570;6.036;2023-08-17T03:09:16;5.63;;;2.47;;
49826;SDS011;35715;51.570;6.036;2023-08-17T03:11:41;4.60;;;1.98;;
49826;SDS011;35715;51.570;6.036;2023-08-17T03:14:07;4.32;;;2.38;;
49826;SDS011;35715;51.570;6.036;2023-08-17T03:16:32;3.00;;;2.25;;
49826;SDS011;35715;51.570;6.036;2023-08-17T03:18:57;3.33;;;1.95;;
49826;SDS011;35715;51.570;6.036;2023-08-17T03:21:23;4.65;;;2.10;;
49826;SDS011;35715;51.570;6.036;2023-08-17T03:23:49;10.25;;;3.47;;
49826;SDS011;35715;51.570;6.036;2023-08-17T03:26:14;5.93;;;2.70;;
49826;SDS011;35715;51.570;6.036;2023-08-17T03:28:40;17.95;;;3.47;;
49826;SDS011;35715;51.570;6.036;2023-08-17T03:31:09;6.55;;;2.70;;
49826;SDS011;35715;51.570;6.036;2023-08-17T03:33:35;7.68;;;3.15;;
49826;SDS011;35715;51.570;6.036;2023-08-17T03:36:01;4.93;;;2.30;;
49826;SDS011;35715;51.570;6.036;2023-08-17T03:38:29;6.05;;;2.40;;
49826;SDS011;35715;51.570;6.036;2023-08-17T03:40:55;6.35;;;2.97;;
49826;SDS011;35715;51.570;6.036;2023-08-17T03:43:20;2.45;;;2.15;;
49826;SDS011;35715;51.570;6.036;2023-08-17T03:45:45;6.43;;;3.30;;
49826;SDS011;35715;51.570;6.036;2023-08-17T03:48:11;3.58;;;2.88;;
49826;SDS011;35715;51.570;6.036;2023-08-17T03:50:37;11.25;;;2.42;;
49826;SDS011;35715;51.570;6.036;2023-08-17T03:53:02;5.47;;;2.30;;
49826;SDS011;35715;51.570;6.036;2023-08-17T03:55:28;6.90;;;3.15;;
49826;SDS011;35715;51.570;6.036;2023-08-17T03:57:53;6.43;;;3.08;;
49826;SDS011;35715;51.570;6.036;2023-08-17T04:00:19;4.88;;;2.22;;
49826;SDS011;35715;51.570;6.036;2023-08-17T04:02:44;4.38;;;2.58;;
49826;SDS011;35715;51.570;6.036;2023-08-17T04:05:10;6.18;;;2.55;;
49826;SDS011;35715;51.570;6.036;2023-08-17T04:07:35;7.00;;;2.65;;
49826;SDS011;35715;51.570;6.036;2023-08-17T04:10:02;4.68;;;2.50;;
49826;SDS011;35715;51.570;6.036;2023-08-17T04:12:28;6.95;;;2.88;;
49826;SDS011;35715;51.570;6.036;2023-08-17T04:14:53;21.02;;;2.80;;
49826;SDS011;35715;51.570;6.036;2023-08-17T04:17:19;4.35;;;2.25;;
49826;SDS011;35715;51.570;6.036;2023-08-17T04:19:45;7.85;;;2.40;;
49826;SDS011;35715;51.570;6.036;2023-08-17T04:22:11;13.38;;;3.13;;
49826;SDS011;35715;51.570;6.036;2023-08-17T04:24:37;6.60;;;2.22;;
49826;SDS011;35715;51.570;6.036;2023-08-17T04:27:02;6.15;;;2.65;;
49826;SDS011;35715;51.570;6.036;2023-08-17T04:29:29;6.63;;;2.58;;
49826;SDS011;35715;51.570;6.036;2023-08-17T04:31:55;5.15;;;2.15;;
49826;SDS011;35715;51.570;6.036;2023-08-17T04:34:21;3.72;;;2.55;;
49826;SDS011;35715;51.570;6.036;2023-08-17T04:36:46;2.40;;;1.70;;
49826;SDS011;35715;51.570;6.036;2023-08-17T04:39:11;6.13;;;2.33;;
49826;SDS011;35715;51.570;6.036;2023-08-17T04:41:37;4.45;;;2.22;;
49826;SDS011;35715;51.570;6.036;2023-08-17T04:44:03;3.80;;;2.25;;
49826;SDS011;35715;51.570;6.036;2023-08-17T04:46:29;4.32;;;2.05;;
49826;SDS011;35715;51.570;6.036;2023-08-17T04:48:54;3.90;;;3.15;;
49826;SDS011;35715;51.570;6.036;2023-08-17T04:51:22;5.88;;;3.22;;
49826;SDS011;35715;51.570;6.036;2023-08-17T04:53:48;7.18;;;3.28;;
49826;SDS011;35715;51.570;6.036;2023-08-17T04:56:14;6.63;;;2.13;;
49826;SDS011;35715;51.570;6.036;2023-08-17T04:58:39;5.18;;;2.55;;
49826;SDS011;35715;51.570;6.036;2023-08-17T05:01:05;7.68;;;2.85;;
49826;SDS011;35715;51.570;6.036;2023-08-17T05:03:30;3.75;;;2.58;;
49826;SDS011;35715;51.570;6.036;2023-08-17T05:05:56;8.55;;;2.88;;
49826;SDS011;35715;51.570;6.036;2023-08-17T05:08:21;5.95;;;2.30;;
49826;SDS011;35715;51.570;6.036;2023-08-17T05:10:47;2.85;;;2.47;;
49826;SDS011;35715;51.570;6.036;2023-08-17T05:13:13;5.47;;;2.80;;
49826;SDS011;35715;51.570;6.036;2023-08-17T05:15:38;5.43;;;2.88;;
49826;SDS011;35715;51.570;6.036;2023-08-17T05:18:03;3.45;;;2.50;;
49826;SDS011;35715;51.570;6.036;2023-08-17T05:20:29;9.93;;;3.40;;
49826;SDS011;35715;51.570;6.036;2023-08-17T05:22:55;2.78;;;2.30;;
49826;SDS011;35715;51.570;6.036;2023-08-17T05:25:20;6.18;;;3.20;;
49826;SDS011;35715;51.570;6.036;2023-08-17T05:27:46;12.35;;;3.25;;
49826;SDS011;35715;51.570;6.036;2023-08-17T05:30:14;2.83;;;1.88;;
49826;SDS011;35715;51.570;6.036;2023-08-17T05:32:39;6.25;;;2.13;;
49826;SDS011;35715;51.570;6.036;2023-08-17T05:35:05;5.97;;;2.92;;
49826;SDS011;35715;51.570;6.036;2023-08-17T05:37:31;4.50;;;2.33;;
49826;SDS011;35715;51.570;6.036;2023-08-17T05:39:56;4.32;;;2.65;;
49826;SDS011;35715;51.570;6.036;2023-08-17T05:42:22;6.20;;;2.28;;
49826;SDS011;35715;51.570;6.036;2023-08-17T05:44:47;9.48;;;3.00;;
49826;SDS011;35715;51.570;6.036;2023-08-17T05:47:12;5.20;;;2.22;;
49826;SDS011;35715;51.570;6.036;2023-08-17T05:49:40;2.85;;;2.65;;
49826;SDS011;35715;51.570;6.036;2023-08-17T05:52:05;8.60;;;3.17;;
49826;SDS011;35715;51.570;6.036;2023-08-17T05:54:31;8.27;;;3.42;;
49826;SDS011;35715;51.570;6.036;2023-08-17T05:56:56;2.88;;;2.33;;
49826;SDS011;35715;51.570;6.036;2023-08-17T05:59:21;7.38;;;2.90;;
49826;SDS011;35715;51.570;6.036;2023-08-17T06:01:47;12.30;;;4.32;;
49826;SDS011;35715;51.570;6.036;2023-08-17T06:04:12;5.90;;;2.60;;
49826;SDS011;35715;51.570;6.036;2023-08-17T06:06:38;6.53;;;2.78;;
49826;SDS011;35715;51.570;6.036;2023-08-17T06:09:03;15.45;;;3.38;;
49826;SDS011;35715;51.570;6.036;2023-08-17T06:11:28;4.70;;;2.50;;
49826;SDS011;35715;51.570;6.036;2023-08-17T06:13:54;3.05;;;2.53;;
49826;SDS011;35715;51.570;6.036;2023-08-17T06:16:19;4.45;;;2.42;;
49826;SDS011;35715;51.570;6.036;2023-08-17T06:18:45;4.35;;;2.30;;
49826;SDS011;35715;51.570;6.036;2023-08-17T06:21:11;4.75;;;2.60;;
49826;SDS011;35715;51.570;6.036;2023-08-17T06:23:36;6.68;;;2.40;;
49826;SDS011;35715;51.570;6.036;2023-08-17T06:26:04;7.57;;;2.55;;
49826;SDS011;35715;51.570;6.036;2023-08-17T06:28:29;3.05;;;2.00;;
49826;SDS011;35715;51.570;6.036;2023-08-17T06:30:55;3.40;;;2.47;;
49826;SDS011;35715;51.570;6.036;2023-08-17T06:33:21;7.38;;;2.72;;
49826;SDS011;35715;51.570;6.036;2023-08-17T06:35:47;5.35;;;2.13;;
49826;SDS011;35715;51.570;6.036;2023-08-17T06:38:13;5.85;;;2.28;;
49826;SDS011;35715;51.570;6.036;2023-08-17T06:40:39;3.50;;;2.55;;
49826;SDS011;35715;51.570;6.036;2023-08-17T06:43:04;3.72;;;2.10;;
49826;SDS011;35715;51.570;6.036;2023-08-17T06:45:32;4.78;;;2.53;;
49826;SDS011;35715;51.570;6.036;2023-08-17T06:47:58;2.20;;;1.85;;
49826;SDS011;35715;51.570;6.036;2023-08-17T06:50:24;5.72;;;2.78;;
49826;SDS011;35715;51.570;6.036;2023-08-17T06:52:50;13.48;;;3.38;;
49826;SDS011;35715;51.570;6.036;2023-08-17T06:55:15;3.58;;;2.72;;
49826;SDS011;35715;51.570;6.036;2023-08-17T06:57:41;5.93;;;2.45;;
49826;SDS011;35715;51.570;6.036;2023-08-17T07:00:07;11.50;;;3.78;;
49826;SDS011;35715;51.570;6.036;2023-08-17T07:02:33;4.88;;;2.40;;
49826;SDS011;35715;51.570;6.036;2023-08-17T07:04:59;4.90;;;2.13;;
49826;SDS011;35715;51.570;6.036;2023-08-17T07:07:25;4.90;;;2.47;;
49826;SDS011;35715;51.570;6.036;2023-08-17T07:09:50;7.28;;;3.17;;
49826;SDS011;35715;51.570;6.036;2023-08-17T07:12:16;5.70;;;2.40;;
49826;SDS011;35715;51.570;6.036;2023-08-17T07:14:41;7.68;;;3.05;;
49826;SDS011;35715;51.570;6.036;2023-08-17T07:17:06;5.57;;;2.53;;
49826;SDS011;35715;51.570;6.036;2023-08-17T07:19:32;5.53;;;3.10;;
49826;SDS011;35715;51.570;6.036;2023-08-17T07:21:57;7.00;;;3.25;;
49826;SDS011;35715;51.570;6.036;2023-08-17T07:24:23;4.90;;;2.72;;
49826;SDS011;35715;51.570;6.036;2023-08-17T07:26:48;6.70;;;3.58;;
49826;SDS011;35715;51.570;6.036;2023-08-17T07:29:13;5.40;;;3.05;;
49826;SDS011;35715;51.570;6.036;2023-08-17T07:31:39;8.18;;;3.05;;
49826;SDS011;35715;51.570;6.036;2023-08-17T07:34:05;4.30;;;2.50;;
49826;SDS011;35715;51.570;6.036;2023-08-17T07:36:31;5.70;;;3.13;;
49826;SDS011;35715;51.570;6.036;2023-08-17T07:38:57;5.15;;;2.15;;
49826;SDS011;35715;51.570;6.036;2023-08-17T07:41:23;4.82;;;2.90;;
49826;SDS011;35715;51.570;6.036;2023-08-17T07:43:48;5.50;;;3.17;;
49826;SDS011;35715;51.570;6.036;2023-08-17T07:46:16;9.15;;;3.08;;
49826;SDS011;35715;51.570;6.036;2023-08-17T07:48:42;4.85;;;2.97;;
49826;SDS011;35715;51.570;6.036;2023-08-17T07:51:07;6.18;;;2.35;;
49826;SDS011;35715;51.570;6.036;2023-08-17T07:53:32;13.15;;;3.00;;
49826;SDS011;35715;51.570;6.036;2023-08-17T07:55:58;6.00;;;2.50;;
49826;SDS011;35715;51.570;6.036;2023-08-17T07:58:23;2.90;;;2.50;;
49826;SDS011;35715;51.570;6.036;2023-08-17T08:00:49;6.30;;;3.33;;
49826;SDS011;35715;51.570;6.036;2023-08-17T08:03:14;5.63;;;3.30;;
49826;SDS011;35715;51.570;6.036;2023-08-17T08:05:40;20.33;;;4.72;;
49826;SDS011;35715;51.570;6.036;2023-08-17T08:08:05;7.68;;;3.67;;
49826;SDS011;35715;51.570;6.036;2023-08-17T08:10:31;11.80;;;3.55;;
49826;SDS011;35715;51.570;6.036;2023-08-17T08:12:56;5.25;;;3.50;;
49826;SDS011;35715;51.570;6.036;2023-08-17T08:15:22;9.50;;;2.97;;
49826;SDS011;35715;51.570;6.036;2023-08-17T08:17:47;6.55;;;3.47;;
49826;SDS011;35715;51.570;6.036;2023-08-17T08:20:13;4.00;;;2.47;;
49826;SDS011;35715;51.570;6.036;2023-08-17T08:22:41;6.32;;;3.35;;
49826;SDS011;35715;51.570;6.036;2023-08-17T08:25:06;10.57;;;4.45;;
49826;SDS011;35715;51.570;6.036;2023-08-17T08:27:32;7.43;;;4.05;;
49826;SDS011;35715;51.570;6.036;2023-08-17T08:29:57;11.10;;;4.30;;
49826;SDS011;35715;51.570;6.036;2023-08-17T08:32:23;4.18;;;3.25;;
49826;SDS011;35715;51.570;6.036;2023-08-17T08:34:48;7.18;;;4.40;;
49826;SDS011;35715;51.570;6.036;2023-08-17T08:37:14;4.97;;;3.78;;
49826;SDS011;35715;51.570;6.036;2023-08-17T08:39:52;6.75;;;4.22;;
49826;SDS011;35715;51.570;6.036;2023-08-17T08:42:19;7.20;;;3.60;;
49826;SDS011;35715;51.570;6.036;2023-08-17T08:44:45;14.30;;;5.75;;
49826;SDS011;35715;51.570;6.036;2023-08-17T08:47:11;10.95;;;4.95;;
49826;SDS011;35715;51.570;6.036;2023-08-17T08:49:39;14.90;;;4.25;;
49826;SDS011;35715;51.570;6.036;2023-08-17T08:52:08;11.93;;;5.28;;
49826;SDS011;35715;51.570;6.036;2023-08-17T08:54:41;9.13;;;6.35;;
49826;SDS011;35715;51.570;6.036;2023-08-17T08:57:11;13.65;;;6.78;;
49826;SDS011;35715;51.570;6.036;2023-08-17T08:59:41;9.05;;;4.80;;
49826;SDS011;35715;51.570;6.036;2023-08-17T09:02:14;16.55;;;6.80;;
49826;SDS011;35715;51.570;6.036;2023-08-17T09:04:44;6.80;;;4.93;;
49826;SDS011;35715;51.570;6.036;2023-08-17T09:07:10;10.90;;;4.47;;
49826;SDS011;35715;51.570;6.036;2023-08-17T09:09:37;19.30;;;6.80;;
49826;SDS011;35715;51.570;6.036;2023-08-17T09:12:03;10.23;;;5.75;;
49826;SDS011;35715;51.570;6.036;2023-08-17T09:14:29;9.10;;;5.68;;
49826;SDS011;35715;51.570;6.036;2023-08-17T09:16:54;13.88;;;7.15;;
49826;SDS011;35715;51.570;6.036;2023-08-17T09:19:23;18.50;;;7.60;;
49826;SDS011;35715;51.570;6.036;2023-08-17T09:21:50;15.00;;;6.78;;
49826;SDS011;35715;51.570;6.036;2023-08-17T09:24:15;13.80;;;6.97;;
49826;SDS011;35715;51.570;6.036;2023-08-17T09:26:41;11.52;;;7.25;;
49826;SDS011;35715;51.570;6.036;2023-08-17T09:29:16;13.43;;;7.53;;
49826;SDS011;35715;51.570;6.036;2023-08-17T09:31:47;9.80;;;6.10;;
49826;SDS011;35715;51.570;6.036;2023-08-17T09:34:14;15.05;;;8.15;;
49826;SDS011;35715;51.570;6.036;2023-08-17T09:36:39;11.55;;;7.93;;
49826;SDS011;35715;51.570;6.036;2023-08-17T09:39:05;12.70;;;7.03;;
49826;SDS011;35715;51.570;6.036;2023-08-17T09:41:31;12.50;;;6.97;;
49826;SDS011;35715;51.570;6.036;2023-08-17T09:44:03;19.85;;;8.40;;
49826;SDS011;35715;51.570;6.036;2023-08-17T09:46:29;14.38;;;8.13;;
49826;SDS011;35715;51.570;6.036;2023-08-17T09:48:54;18.75;;;9.88;;
49826;SDS011;35715;51.570;6.036;2023-08-17T09:51:20;8.68;;;6.00;;
49826;SDS011;35715;51.570;6.036;2023-08-17T09:53:51;11.90;;;7.43;;
49826;SDS011;35715;51.570;6.036;2023-08-17T09:56:18;12.95;;;7.30;;
49826;SDS011;35715;51.570;6.036;2023-08-17T09:58:46;14.48;;;7.93;;
49826;SDS011;35715;51.570;6.036;2023-08-17T10:01:12;15.40;;;7.88;;
49826;SDS011;35715;51.570;6.036;2023-08-17T10:03:39;10.43;;;6.80;;
49826;SDS011;35715;51.570;6.036;2023-08-17T10:06:09;10.33;;;6.70;;
49826;SDS011;35715;51.570;6.036;2023-08-17T10:08:39;14.95;;;7.75;;
49826;SDS011;35715;51.570;6.036;2023-08-17T10:11:08;9.68;;;6.55;;
49826;SDS011;35715;51.570;6.036;2023-08-17T10:13:35;12.77;;;7.38;;
49826;SDS011;35715;51.570;6.036;2023-08-17T10:21:32;10.65;;;6.88;;
49826;SDS011;35715;51.570;6.036;2023-08-17T10:24:02;10.13;;;7.70;;
49826;SDS011;35715;51.570;6.036;2023-08-17T10:26:28;11.30;;;6.57;;
49826;SDS011;35715;51.570;6.036;2023-08-17T10:28:55;11.82;;;6.90;;
49826;SDS011;35715;51.570;6.036;2023-08-17T10:31:23;15.80;;;9.35;;
49826;SDS011;35715;51.570;6.036;2023-08-17T10:33:49;10.20;;;6.60;;
49826;SDS011;35715;51.570;6.036;2023-08-17T10:36:15;8.48;;;6.35;;
49826;SDS011;35715;51.570;6.036;2023-08-17T10:38:41;11.88;;;7.03;;
49826;SDS011;35715;51.570;6.036;2023-08-17T10:41:07;11.73;;;6.88;;
49826;SDS011;35715;51.570;6.036;2023-08-17T10:43:34;12.70;;;7.82;;
49826;SDS011;35715;51.570;6.036;2023-08-17T10:46:17;12.30;;;7.80;;
49826;SDS011;35715;51.570;6.036;2023-08-17T10:48:43;12.68;;;8.27;;
49826;SDS011;35715;51.570;6.036;2023-08-17T10:51:09;11.38;;;6.97;;
49826;SDS011;35715;51.570;6.036;2023-08-17T10:53:38;8.18;;;6.63;;
49826;SDS011;35715;51.570;6.036;2023-08-17T10:56:07;10.70;;;7.40;;
49826;SDS011;35715;51.570;6.036;2023-08-17T10:58:35;9.23;;;8.18;;
49826;SDS011;35715;51.570;6.036;2023-08-17T11:01:01;10.02;;;6.35;;
49826;SDS011;35715;51.570;6.036;2023-08-17T11:03:26;11.65;;;6.60;;
49826;SDS011;35715;51.570;6.036;2023-08-17T11:05:53;15.35;;;8.05;;
49826;SDS011;35715;51.570;6.036;2023-08-17T11:11:10;10.82;;;7.68;;
49826;SDS011;35715;51.570;6.036;2023-08-17T11:13:37;9.63;;;7.07;;
49826;SDS011;35715;51.570;6.036;2023-08-17T11:16:04;14.90;;;8.40;;
49826;SDS011;35715;51.570;6.036;2023-08-17T11:18:31;11.25;;;8.00;;
49826;SDS011;35715;51.570;6.036;2023-08-17T11:20:57;11.18;;;8.35;;
49826;SDS011;35715;51.570;6.036;2023-08-17T11:23:23;15.23;;;8.00;;
49826;SDS011;35715;51.570;6.036;2023-08-17T11:25:49;10.55;;;7.63;;
49826;SDS011;35715;51.570;6.036;2023-08-17T11:28:16;10.68;;;7.20;;
49826;SDS011;35715;51.570;6.036;2023-08-17T11:30:42;11.23;;;7.55;;
49826;SDS011;35715;51.570;6.036;2023-08-17T11:33:08;11.68;;;8.32;;
49826;SDS011;35715;51.570;6.036;2023-08-17T11:35:35;11.30;;;8.13;;
49826;SDS011;35715;51.570;6.036;2023-08-17T11:38:01;13.13;;;8.25;;
49826;SDS011;35715;51.570;6.036;2023-08-17T11:40:28;13.77;;;9.00;;
49826;SDS011;35715;51.570;6.036;2023-08-17T11:42:54;12.10;;;8.13;;
49826;SDS011;35715;51.570;6.036;2023-08-17T11:45:19;14.48;;;8.63;;
49826;SDS011;35715;51.570;6.036;2023-08-17T11:47:46;12.57;;;8.40;;
49826;SDS011;35715;51.570;6.036;2023-08-17T11:50:14;30.63;;;9.70;;
49826;SDS011;35715;51.570;6.036;2023-08-17T11:52:40;8.30;;;7.43;;
49826;SDS011;35715;51.570;6.036;2023-08-17T11:55:06;12.02;;;8.38;;
49826;SDS011;35715;51.570;6.036;2023-08-17T11:57:34;9.65;;;7.40;;
49826;SDS011;35715;51.570;6.036;2023-08-17T12:00:04;13.10;;;7.40;;
49826;SDS011;35715;51.570;6.036;2023-08-17T12:02:37;9.35;;;7.07;;
49826;SDS011;35715;51.570;6.036;2023-08-17T12:07:32;8.15;;;7.35;;
49826;SDS011;35715;51.570;6.036;2023-08-17T12:09:58;10.93;;;7.15;;
49826;SDS011;35715;51.570;6.036;2023-08-17T12:12:23;10.60;;;8.18;;
49826;SDS011;35715;51.570;6.036;2023-08-17T12:14:49;9.35;;;6.88;;
49826;SDS011;35715;51.570;6.036;2023-08-17T12:17:18;10.05;;;8.32;;
49826;SDS011;35715;51.570;6.036;2023-08-17T12:19:44;16.30;;;9.93;;
49826;SDS011;35715;51.570;6.036;2023-08-17T12:22:13;14.88;;;8.55;;
49826;SDS011;35715;51.570;6.036;2023-08-17T12:24:39;11.00;;;8.75;;
49826;SDS011;35715;51.570;6.036;2023-08-17T12:27:05;12.25;;;8.57;;
49826;SDS011;35715;51.570;6.036;2023-08-17T12:29:31;15.95;;;8.85;;
49826;SDS011;35715;51.570;6.036;2023-08-17T12:31:57;10.48;;;7.90;;
49826;SDS011;35715;51.570;6.036;2023-08-17T12:34:29;10.10;;;7.82;;
49826;SDS011;35715;51.570;6.036;2023-08-17T12:36:54;11.27;;;7.68;;
49826;SDS011;35715;51.570;6.036;2023-08-17T12:39:19;9.70;;;8.10;;
49826;SDS011;35715;51.570;6.036;2023-08-17T12:41:45;9.18;;;8.27;;
49826;SDS011;35715;51.570;6.036;2023-08-17T12:44:10;11.25;;;8.68;;
49826;SDS011;35715;51.570;6.036;2023-08-17T12:46:39;9.68;;;8.68;;
49826;SDS011;35715;51.570;6.036;2023-08-17T12:49:05;13.02;;;9.05;;
49826;SDS011;35715;51.570;6.036;2023-08-17T12:51:30;12.23;;;8.05;;
49826;SDS011;35715;51.570;6.036;2023-08-17T12:53:56;11.20;;;7.97;;
49826;SDS011;35715;51.570;6.036;2023-08-17T12:56:21;9.20;;;8.23;;
49826;SDS011;35715;51.570;6.036;2023-08-17T12:58:46;12.60;;;8.73;;
49826;SDS011;35715;51.570;6.036;2023-08-17T13:01:12;11.07;;;9.43;;
49826;SDS011;35715;51.570;6.036;2023-08-17T13:03:39;23.70;;;10.18;;
49826;SDS011;35715;51.570;6.036;2023-08-17T13:06:04;10.93;;;7.07;;
49826;SDS011;35715;51.570;6.036;2023-08-17T13:08:29;9.63;;;8.57;;
49826;SDS011;35715;51.570;6.036;2023-08-17T13:10:55;10.30;;;8.32;;
49826;SDS011;35715;51.570;6.036;2023-08-17T13:13:20;17.55;;;8.70;;
49826;SDS011;35715;51.570;6.036;2023-08-17T13:15:46;9.45;;;7.90;;
49826;SDS011;35715;51.570;6.036;2023-08-17T13:18:11;13.43;;;9.32;;
49826;SDS011;35715;51.570;6.036;2023-08-17T13:20:37;17.33;;;10.45;;
49826;SDS011;35715;51.570;6.036;2023-08-17T13:23:03;14.98;;;9.25;;
49826;SDS011;35715;51.570;6.036;2023-08-17T13:25:29;12.80;;;8.75;;
49826;SDS011;35715;51.570;6.036;2023-08-17T13:27:54;12.15;;;10.05;;
49826;SDS011;35715;51.570;6.036;2023-08-17T13:30:20;10.73;;;9.07;;
49826;SDS011;35715;51.570;6.036;2023-08-17T13:32:46;11.50;;;8.85;;
49826;SDS011;35715;51.570;6.036;2023-08-17T13:35:11;10.43;;;9.20;;
49826;SDS011;35715;51.570;6.036;2023-08-17T13:37:37;14.10;;;9.73;;
49826;SDS011;35715;51.570;6.036;2023-08-17T13:40:02;14.77;;;9.02;;
49826;SDS011;35715;51.570;6.036;2023-08-17T13:42:28;13.55;;;9.88;;
49826;SDS011;35715;51.570;6.036;2023-08-17T13:44:53;12.80;;;9.75;;
49826;SDS011;35715;51.570;6.036;2023-08-17T13:47:19;15.90;;;10.75;;
49826;SDS011;35715;51.570;6.036;2023-08-17T13:49:44;9.70;;;8.70;;
49826;SDS011;35715;51.570;6.036;2023-08-17T13:52:10;9.45;;;8.35;;
49826;SDS011;35715;51.570;6.036;2023-08-17T13:54:35;10.48;;;9.43;;
49826;SDS011;35715;51.570;6.036;2023-08-17T13:57:01;10.60;;;9.15;;
49826;SDS011;35715;51.570;6.036;2023-08-17T13:59:26;24.20;;;10.10;;
49826;SDS011;35715;51.570;6.036;2023-08-17T14:01:52;13.00;;;9.52;;
49826;SDS011;35715;51.570;6.036;2023-08-17T14:04:17;18.75;;;10.77;;
49826;SDS011;35715;51.570;6.036;2023-08-17T14:06:42;13.18;;;8.88;;
49826;SDS011;35715;51.570;6.036;2023-08-17T14:09:08;15.45;;;10.48;;
49826;SDS011;35715;51.570;6.036;2023-08-17T14:11:34;12.02;;;9.77;;
49826;SDS011;35715;51.570;6.036;2023-08-17T14:13:59;26.45;;;10.75;;
49826;SDS011;35715;51.570;6.036;2023-08-17T14:16:24;14.13;;;10.65;;
49826;SDS011;35715;51.570;6.036;2023-08-17T14:18:50;14.90;;;11.10;;
49826;SDS011;35715;51.570;6.036;2023-08-17T14:21:15;17.75;;;13.32;;
49826;SDS011;35715;51.570;6.036;2023-08-17T14:23:40;11.95;;;10.80;;
49826;SDS011;35715;51.570;6.036;2023-08-17T14:26:06;15.70;;;11.25;;
49826;SDS011;35715;51.570;6.036;2023-08-17T14:28:32;14.30;;;10.80;;
49826;SDS011;35715;51.570;6.036;2023-08-17T14:30:57;12.27;;;10.75;;
49826;SDS011;35715;51.570;6.036;2023-08-17T14:33:23;20.65;;;11.35;;
49826;SDS011;35715;51.570;6.036;2023-08-17T14:35:48;11.43;;;9.57;;
49826;SDS011;35715;51.570;6.036;2023-08-17T14:38:15;16.63;;;9.73;;
49826;SDS011;35715;51.570;6.036;2023-08-17T14:40:44;10.45;;;9.38;;
49826;SDS011;35715;51.570;6.036;2023-08-17T14:43:11;18.00;;;11.15;;
49826;SDS011;35715;51.570;6.036;2023-08-17T14:45:38;10.70;;;9.32;;
49826;SDS011;35715;51.570;6.036;2023-08-17T14:48:08;15.73;;;10.23;;